Terminal Aerodrome Forecast
Issued by NWS Mt. Holly, NJ

Home | Current Version | Previous Version | Text Only | Print | Product List | Glossary On
Versions: 1 2 3 4 5 6 7 8 9 10 11 12 13 14 15 16 17 18 19 20 21 22 23 24 25 26 27 28 29 30 31 32 33
000
FTAK31 PANC 290003 AAA
TAFABE
TAF AMD
PABE 290003Z 2900/2924 26010KT P6SM SCT045
     FM290600 21008KT P6SM SCT025 BKN050
     FM291200 21006KT 1SM BR BKN005
     FM291900 17007KT P6SM BKN012 OVC025
     FM292100 16015KT P6SM BKN035=

USA.gov is the U.S. government's official web portal to all federal, state and local government web resources and services.